Axtel, Kentucky
Current Conditions -  °F | °C
As of 10:58 PM on Thursday 30 Oct 2014 (Local Time) from KFTK Reporting Station
Broken Clouds Broken Clouds  
Wind Chill:   Ceiling: 13000
Heat Index:   Visibility: 10mi
Dew Point:   Wind: 0mph
Humidity: 82%   Direction: NA
Pressure: 30.03"   Gusts: NA
Location:  37.7834°N, 86.4612°W
Report Text: KFTK 310358Z AUTO 00000KT 10SM BKN130 08/05 A3003 RMK AO2 SLP174 T00780049
Loading
Personal Weather Stations






























Interactive Weather Map
Tropical Storm Tracking
New forecast layout! Learn more

10-Day Weather Forecast

Advertisements
Track Severe Weather on mobile